Union, Illinois
Current Conditions -  °F | °C
As of 12:15 AM on Monday 26 Jan 2015 (Local Time) from KDKB Reporting Station
Clear Clear  
Wind Chill:   Ceiling: Unl
Heat Index: 15°   Visibility: 10mi
Dew Point: 11°   Wind: 9mph
Humidity: 83%   Direction: 340°NNW
Pressure: 30"   Gusts: NA
Location:  42.23°N, 88.54°W
Report Text: KDKB 260615Z AUTO 34008KT 10SM CLR M09/M12 A3000 RMK AO2 T10951119
Loading
Personal Weather Stations






























Interactive Weather Map New forecast layout! Learn more

10-Day Weather Forecast

Advertisements
Track Severe Weather on mobile